Beaver Bottom, Kentucky
Current Conditions -  °F | °C
As of 2:15 AM on Wednesday 26 Nov 2014 (Local Time) from KPBX Reporting Station
Scattered Clouds Scattered Clouds  
Wind Chill: 36°   Ceiling: Unl
Heat Index: 39°   Visibility: 10mi
Dew Point: 28°   Wind: 5mph
Humidity: 65%   Direction: 10°N
Pressure: 30.05"   Gusts: NA
Location:  37.3089°N, 82.3418°W
Report Text: KPBX 260715Z AUTO 01004KT 10SM SCT120 04/M02 A3005 RMK AO2 T00411020
Loading
Personal Weather Stations






























Interactive Weather Map New forecast layout! Learn more

10-Day Weather Forecast

Advertisements
Track Severe Weather on mobile